Time;durP1;ratioP1;P1;durP2;ratioP2;P2;SDS_P1;SDS_P2;PMS_P1;PMS_P2;Temp;Humidity;BMP_temperature;BMP_pressure;BME280_temperature;BME280_humidity;BME280_pressure;Samples;Min_cycle;Max_cycle;Signal;HPM_P1;HPM_P2
2021/07/29 00:01:15;;;;;;;3.27;1.77;;;;;;;;;;4947810;29;20192;-74
2021/07/29 00:03:41;;;;;;;6.93;2.35;;;;;;;;;;4948166;28;20473;-73
2021/07/29 00:06:06;;;;;;;5.68;1.70;;;;;;;;;;4950685;29;20814;-73
2021/07/29 00:08:31;;;;;;;7.40;2.47;;;;;;;;;;4946131;28;20177;-72
2021/07/29 00:10:56;;;;;;;6.57;2.17;;;;;;;;;;4953968;29;20200;-72
2021/07/29 00:13:21;;;;;;;4.53;2.30;;;;;;;;;;4949108;28;20992;-71
2021/07/29 00:15:47;;;;;;;8.48;1.98;;;;;;;;;;4954059;29;20185;-72
2021/07/29 00:20:39;;;;;;;6.90;2.90;;;;;;;;;;4947105;28;20299;-72
2021/07/29 00:23:05;;;;;;;5.85;2.28;;;;;;;;;;4949750;29;21704;-72
2021/07/29 00:25:30;;;;;;;10.60;2.25;;;;;;;;;;4948921;29;20738;-72
2021/07/29 00:27:56;;;;;;;9.07;2.70;;;;;;;;;;4950343;28;20185;-72
2021/07/29 00:30:23;;;;;;;7.60;2.28;;;;;;;;;;4949602;29;20235;-71
2021/07/29 00:32:50;;;;;;;9.43;2.15;;;;;;;;;;4933643;29;20181;-70
2021/07/29 00:35:16;;;;;;;7.03;2.60;;;;;;;;;;4949370;29;20643;-73
2021/07/29 00:37:41;;;;;;;11.13;2.45;;;;;;;;;;4923843;29;20197;-72
2021/07/29 00:40:07;;;;;;;5.00;2.13;;;;;;;;;;4950235;29;20634;-72
2021/07/29 00:42:32;;;;;;;8.27;2.70;;;;;;;;;;4941656;29;20197;-72
2021/07/29 00:44:57;;;;;;;6.38;2.33;;;;;;;;;;4947439;28;20217;-71
2021/07/29 00:47:22;;;;;;;7.93;2.22;;;;;;;;;;4926215;29;20178;-72
2021/07/29 00:49:48;;;;;;;7.88;2.33;;;;;;;;;;4948948;29;20189;-72
2021/07/29 00:52:14;;;;;;;4.78;2.38;;;;;;;;;;4950412;29;20181;-70
2021/07/29 00:54:39;;;;;;;6.75;2.22;;;;;;;;;;4942556;29;20185;-72
2021/07/29 00:57:05;;;;;;;9.68;2.20;;;;;;;;;;4954673;29;20196;-72
2021/07/29 00:59:30;;;;;;;8.02;3.17;;;;;;;;;;4946029;29;20197;-73
2021/07/29 01:01:55;;;;;;;8.38;2.40;;;;;;;;;;4946558;29;20174;-72
2021/07/29 01:04:21;;;;;;;7.13;3.38;;;;;;;;;;4941681;29;20189;-72
2021/07/29 01:06:46;;;;;;;6.65;3.20;;;;;;;;;;4950662;29;20693;-72
2021/07/29 01:09:11;;;;;;;10.85;4.20;;;;;;;;;;4947960;29;20203;-72
2021/07/29 01:11:37;;;;;;;13.07;3.65;;;;;;;;;;4944340;28;20181;-72
2021/07/29 01:14:03;;;;;;;9.35;2.80;;;;;;;;;;4946809;29;20659;-73
2021/07/29 01:16:29;;;;;;;11.25;3.08;;;;;;;;;;4945459;29;20275;-72
2021/07/29 01:18:55;;;;;;;8.38;2.85;;;;;;;;;;4944789;29;20201;-72
2021/07/29 01:21:20;;;;;;;9.52;2.63;;;;;;;;;;4929472;29;20185;-72
2021/07/29 01:23:45;;;;;;;13.10;3.17;;;;;;;;;;4932843;29;20201;-71
2021/07/29 01:26:10;;;;;;;11.90;3.40;;;;;;;;;;4950897;29;20231;-71
2021/07/29 01:28:36;;;;;;;6.40;2.47;;;;;;;;;;4953029;29;20177;-71
2021/07/29 01:31:01;;;;;;;9.13;3.35;;;;;;;;;;4999113;23;20234;-70
2021/07/29 01:33:26;;;;;;;16.27;3.50;;;;;;;;;;4998045;28;20226;-69
2021/07/29 01:35:51;;;;;;;9.90;2.90;;;;;;;;;;4992993;28;20186;-71
2021/07/29 01:38:16;;;;;;;13.90;4.47;;;;;;;;;;4999074;28;20210;-70
2021/07/29 01:40:41;;;;;;;5.70;2.83;;;;;;;;;;4987360;28;20282;-70
2021/07/29 01:43:07;;;;;;;9.85;3.47;;;;;;;;;;4994040;28;21052;-71
2021/07/29 01:45:32;;;;;;;9.33;3.37;;;;;;;;;;4987209;28;20258;-72
2021/07/29 01:47:57;;;;;;;10.25;2.95;;;;;;;;;;4993391;28;20935;-71
2021/07/29 01:50:22;;;;;;;9.77;3.73;;;;;;;;;;4986418;28;20231;-71
2021/07/29 01:52:48;;;;;;;9.20;3.97;;;;;;;;;;4983903;28;20966;-71
2021/07/29 01:55:13;;;;;;;9.98;3.42;;;;;;;;;;4987606;28;20273;-71
2021/07/29 01:57:38;;;;;;;12.18;3.58;;;;;;;;;;4975007;28;20188;-71
2021/07/29 02:00:04;;;;;;;13.37;3.13;;;;;;;;;;4985560;28;20212;-71
2021/07/29 02:02:29;;;;;;;11.30;3.20;;;;;;;;;;4980888;28;20817;-70
2021/07/29 02:04:55;;;;;;;11.35;3.92;;;;;;;;;;4988867;28;20274;-70
2021/07/29 02:07:20;;;;;;;10.77;3.03;;;;;;;;;;4984565;28;20606;-71
2021/07/29 02:09:45;;;;;;;14.47;3.73;;;;;;;;;;4984458;28;20461;-71
2021/07/29 02:12:10;;;;;;;14.20;4.83;;;;;;;;;;4988068;28;20468;-71
2021/07/29 02:14:35;;;;;;;13.82;3.20;;;;;;;;;;4978940;28;20436;-72
2021/07/29 02:17:00;;;;;;;15.63;3.42;;;;;;;;;;4988528;28;20180;-69
2021/07/29 02:19:26;;;;;;;16.48;4.03;;;;;;;;;;4982582;28;20200;-70
2021/07/29 02:21:51;;;;;;;13.90;4.27;;;;;;;;;;4986182;28;20191;-69
2021/07/29 02:24:16;;;;;;;12.85;3.97;;;;;;;;;;4986046;28;20465;-69
2021/07/29 02:26:42;;;;;;;14.13;4.35;;;;;;;;;;4987855;28;20253;-69
2021/07/29 02:29:07;;;;;;;12.50;3.60;;;;;;;;;;4981955;28;20187;-69
2021/07/29 02:31:32;;;;;;;9.93;4.03;;;;;;;;;;4983891;28;20645;-70
2021/07/29 02:33:57;;;;;;;11.93;5.28;;;;;;;;;;4990434;28;20214;-70
2021/07/29 02:36:22;;;;;;;11.05;4.15;;;;;;;;;;4977385;28;20692;-70
2021/07/29 02:38:48;;;;;;;10.85;3.83;;;;;;;;;;4989779;28;20719;-69
2021/07/29 02:41:13;;;;;;;14.67;4.67;;;;;;;;;;4989681;28;20217;-70
2021/07/29 02:43:38;;;;;;;15.57;6.18;;;;;;;;;;4984190;28;20560;-69
2021/07/29 02:46:03;;;;;;;13.23;4.88;;;;;;;;;;4981908;28;20184;-70
2021/07/29 02:48:28;;;;;;;16.85;4.57;;;;;;;;;;4981354;28;20263;-69
2021/07/29 02:50:54;;;;;;;7.63;4.20;;;;;;;;;;4983564;28;20203;-70
2021/07/29 02:53:20;;;;;;;15.20;4.30;;;;;;;;;;4998718;28;20183;-70
2021/07/29 02:55:45;;;;;;;16.85;4.35;;;;;;;;;;4988191;28;20222;-70
2021/07/29 02:58:10;;;;;;;11.07;4.47;;;;;;;;;;4993449;28;20207;-71
2021/07/29 03:00:35;;;;;;;9.50;4.40;;;;;;;;;;4992285;28;20199;-70
2021/07/29 03:03:00;;;;;;;14.90;5.57;;;;;;;;;;4985447;28;20222;-72
2021/07/29 03:05:26;;;;;;;14.18;5.07;;;;;;;;;;4992081;28;20179;-71
2021/07/29 03:07:51;;;;;;;12.73;4.40;;;;;;;;;;4993496;28;20187;-71
2021/07/29 03:10:16;;;;;;;10.37;4.17;;;;;;;;;;4998670;28;20238;-71
2021/07/29 03:12:42;;;;;;;7.65;3.20;;;;;;;;;;4989278;28;20515;-71
2021/07/29 03:15:07;;;;;;;13.50;4.07;;;;;;;;;;4988349;28;20188;-71
2021/07/29 03:17:32;;;;;;;8.95;4.13;;;;;;;;;;4988829;28;20180;-72
2021/07/29 03:19:57;;;;;;;8.73;3.47;;;;;;;;;;4990603;28;20274;-70
2021/07/29 03:22:22;;;;;;;8.40;3.30;;;;;;;;;;4991065;28;20188;-71
2021/07/29 03:24:48;;;;;;;10.73;3.58;;;;;;;;;;4994091;28;20424;-71
2021/07/29 03:27:13;;;;;;;7.85;3.33;;;;;;;;;;4987745;28;20637;-71
2021/07/29 03:29:38;;;;;;;9.85;5.03;;;;;;;;;;4988075;28;20219;-71
2021/07/29 03:32:03;;;;;;;8.80;3.67;;;;;;;;;;4983800;28;20182;-71
2021/07/29 03:34:28;;;;;;;7.72;3.20;;;;;;;;;;4983353;28;20172;-72
2021/07/29 03:36:54;;;;;;;7.65;3.72;;;;;;;;;;4985491;28;20202;-71
2021/07/29 03:39:19;;;;;;;5.43;2.90;;;;;;;;;;4982748;28;20211;-72
2021/07/29 03:41:44;;;;;;;11.95;3.40;;;;;;;;;;4992629;28;20442;-72
2021/07/29 03:44:09;;;;;;;6.83;3.37;;;;;;;;;;4984224;28;20258;-71
2021/07/29 03:46:34;;;;;;;11.70;3.90;;;;;;;;;;4992466;28;20436;-72
2021/07/29 03:49:00;;;;;;;7.97;3.67;;;;;;;;;;4987201;28;20191;-72
2021/07/29 03:51:25;;;;;;;8.60;3.00;;;;;;;;;;4990290;28;20211;-72
2021/07/29 03:53:51;;;;;;;7.57;2.97;;;;;;;;;;4981918;28;20184;-71
2021/07/29 03:56:16;;;;;;;6.68;3.58;;;;;;;;;;4983035;28;20266;-71
2021/07/29 03:58:42;;;;;;;9.88;3.65;;;;;;;;;;4985927;28;20218;-72
2021/07/29 04:01:09;;;;;;;8.35;3.50;;;;;;;;;;4989426;28;20315;-71
2021/07/29 04:03:34;;;;;;;10.48;3.30;;;;;;;;;;4986085;28;20212;-72
2021/07/29 04:05:59;;;;;;;12.23;4.13;;;;;;;;;;4981168;28;20180;-72
2021/07/29 04:08:25;;;;;;;10.25;3.92;;;;;;;;;;4987772;28;20182;-72
2021/07/29 04:10:50;;;;;;;12.05;4.03;;;;;;;;;;4991024;28;20207;-72
2021/07/29 04:13:15;;;;;;;11.70;5.47;;;;;;;;;;4991185;28;20199;-71
2021/07/29 04:15:40;;;;;;;7.80;3.50;;;;;;;;;;4980510;28;20308;-71
2021/07/29 04:18:05;;;;;;;14.13;4.20;;;;;;;;;;4993808;28;20650;-71
2021/07/29 04:20:30;;;;;;;12.45;3.95;;;;;;;;;;4986441;28;20452;-70
2021/07/29 04:22:56;;;;;;;16.25;4.97;;;;;;;;;;4990088;28;20203;-72
2021/07/29 04:25:21;;;;;;;15.95;4.82;;;;;;;;;;4990335;28;20176;-71
2021/07/29 04:27:46;;;;;;;10.85;4.35;;;;;;;;;;4988207;28;20183;-71
2021/07/29 04:30:12;;;;;;;16.42;4.65;;;;;;;;;;4982735;28;20747;-71
2021/07/29 04:32:37;;;;;;;19.08;4.80;;;;;;;;;;4978944;28;20184;-71
2021/07/29 04:35:03;;;;;;;15.50;5.10;;;;;;;;;;4983290;28;20235;-71
2021/07/29 04:37:29;;;;;;;12.75;4.18;;;;;;;;;;4989085;28;20613;-72
2021/07/29 04:39:54;;;;;;;13.80;4.30;;;;;;;;;;4981631;28;20188;-72
2021/07/29 04:42:19;;;;;;;11.68;4.07;;;;;;;;;;4987508;28;20559;-72
2021/07/29 04:44:44;;;;;;;14.43;4.30;;;;;;;;;;4983240;28;20211;-70
2021/07/29 04:47:11;;;;;;;15.65;4.32;;;;;;;;;;4987836;28;20562;-72
2021/07/29 04:49:36;;;;;;;11.10;4.95;;;;;;;;;;4989543;28;20205;-71
2021/07/29 04:52:03;;;;;;;21.50;5.63;;;;;;;;;;4982508;28;20184;-72
2021/07/29 04:54:28;;;;;;;13.38;4.50;;;;;;;;;;4983338;28;20188;-70
2021/07/29 04:56:53;;;;;;;10.35;3.72;;;;;;;;;;4994392;28;20254;-74
2021/07/29 04:59:21;;;;;;;11.48;3.53;;;;;;;;;;4990646;28;20210;-74
2021/07/29 05:01:46;;;;;;;14.27;4.25;;;;;;;;;;5006407;28;20179;-70
2021/07/29 05:04:11;;;;;;;9.57;3.78;;;;;;;;;;4982998;28;20223;-71
2021/07/29 05:06:37;;;;;;;10.73;3.30;;;;;;;;;;4992525;28;20175;-71
2021/07/29 05:09:03;;;;;;;14.18;3.60;;;;;;;;;;4981478;28;20678;-73
2021/07/29 05:11:29;;;;;;;10.95;3.65;;;;;;;;;;4992939;28;20516;-73
2021/07/29 05:13:54;;;;;;;8.85;2.92;;;;;;;;;;4986669;28;20653;-73
2021/07/29 05:16:19;;;;;;;12.13;3.92;;;;;;;;;;4980962;28;20654;-74
2021/07/29 05:18:44;;;;;;;11.50;3.50;;;;;;;;;;4984045;28;20196;-73
2021/07/29 05:21:10;;;;;;;11.00;3.83;;;;;;;;;;4988646;28;20203;-71
2021/07/29 05:23:35;;;;;;;10.55;3.90;;;;;;;;;;4990066;28;20195;-73
2021/07/29 05:26:00;;;;;;;18.48;4.88;;;;;;;;;;4986629;28;20187;-72
2021/07/29 05:28:26;;;;;;;14.18;3.05;;;;;;;;;;4985959;28;20590;-72
2021/07/29 05:30:51;;;;;;;8.65;3.33;;;;;;;;;;4984749;28;20221;-70
2021/07/29 05:33:16;;;;;;;6.53;2.85;;;;;;;;;;4989420;28;20191;-72
2021/07/29 05:35:42;;;;;;;12.40;3.15;;;;;;;;;;4986435;28;20288;-72
2021/07/29 05:38:07;;;;;;;13.38;3.75;;;;;;;;;;4986109;28;20658;-70
2021/07/29 05:40:32;;;;;;;7.67;2.43;;;;;;;;;;4988993;28;20215;-68
2021/07/29 05:43:00;;;;;;;8.65;2.58;;;;;;;;;;4987461;28;20457;-73
2021/07/29 05:45:27;;;;;;;8.57;2.45;;;;;;;;;;4983059;28;20184;-73
2021/07/29 05:47:53;;;;;;;8.05;2.90;;;;;;;;;;4993893;28;20183;-72
2021/07/29 05:50:18;;;;;;;10.20;3.22;;;;;;;;;;4992983;28;20191;-72
2021/07/29 05:52:43;;;;;;;6.53;2.63;;;;;;;;;;4991595;28;20556;-73
2021/07/29 05:55:08;;;;;;;10.30;3.10;;;;;;;;;;4992191;28;20452;-73
2021/07/29 05:57:34;;;;;;;7.78;3.17;;;;;;;;;;4987556;28;20175;-73
2021/07/29 05:59:59;;;;;;;12.00;3.55;;;;;;;;;;4985880;28;20741;-71
2021/07/29 06:02:24;;;;;;;11.57;3.55;;;;;;;;;;4987858;28;20690;-73
2021/07/29 06:04:49;;;;;;;9.70;2.93;;;;;;;;;;4993193;28;20488;-73
2021/07/29 06:07:14;;;;;;;9.80;3.10;;;;;;;;;;4991430;28;20488;-72
2021/07/29 06:09:40;;;;;;;8.17;3.40;;;;;;;;;;4984365;28;20223;-73
2021/07/29 06:12:05;;;;;;;9.65;3.17;;;;;;;;;;4991875;28;21039;-72
2021/07/29 06:14:30;;;;;;;10.10;4.20;;;;;;;;;;4991155;28;20190;-73
2021/07/29 06:16:55;;;;;;;7.53;3.55;;;;;;;;;;4993127;28;20241;-73
2021/07/29 06:19:31;;;;;;;8.40;3.95;;;;;;;;;;4994124;28;20241;-71
2021/07/29 06:21:57;;;;;;;15.00;3.88;;;;;;;;;;5008166;28;20170;-74
2021/07/29 06:24:22;;;;;;;12.80;3.85;;;;;;;;;;4990337;28;20216;-73
2021/07/29 06:26:48;;;;;;;9.68;3.88;;;;;;;;;;4992699;28;20179;-73
2021/07/29 06:29:14;;;;;;;9.95;3.30;;;;;;;;;;4988896;28;20214;-72
2021/07/29 06:31:39;;;;;;;16.33;4.63;;;;;;;;;;4989007;28;20662;-74
2021/07/29 06:34:04;;;;;;;10.73;3.03;;;;;;;;;;4995213;28;20194;-71
2021/07/29 06:36:29;;;;;;;13.37;3.37;;;;;;;;;;4993208;28;20201;-74
2021/07/29 06:38:54;;;;;;;9.70;3.23;;;;;;;;;;4993359;28;20432;-73
2021/07/29 06:41:20;;;;;;;12.55;3.30;;;;;;;;;;4990673;28;20417;-71
2021/07/29 06:43:45;;;;;;;10.25;3.40;;;;;;;;;;4991807;28;20217;-73
2021/07/29 06:46:10;;;;;;;9.93;3.20;;;;;;;;;;4990253;28;20190;-73
2021/07/29 06:48:36;;;;;;;12.97;3.00;;;;;;;;;;4990440;28;20420;-73
2021/07/29 06:51:04;;;;;;;10.82;3.08;;;;;;;;;;4993216;28;20440;-73
2021/07/29 06:53:30;;;;;;;12.23;3.25;;;;;;;;;;4989703;28;20175;-69
2021/07/29 06:55:57;;;;;;;12.02;3.70;;;;;;;;;;4983872;28;20182;-70
2021/07/29 06:58:22;;;;;;;14.80;2.92;;;;;;;;;;4988551;28;20183;-70
2021/07/29 07:00:47;;;;;;;15.40;2.87;;;;;;;;;;4989588;28;20695;-70
2021/07/29 07:03:12;;;;;;;9.30;3.13;;;;;;;;;;4991314;28;20901;-70
2021/07/29 07:05:44;;;;;;;7.55;3.33;;;;;;;;;;4981814;28;21086;-69
2021/07/29 07:08:10;;;;;;;8.85;2.83;;;;;;;;;;4983696;28;20899;-70
2021/07/29 07:10:35;;;;;;;12.97;3.20;;;;;;;;;;4988839;28;20214;-72
2021/07/29 07:13:00;;;;;;;11.57;2.90;;;;;;;;;;4991260;28;20431;-70
2021/07/29 07:15:25;;;;;;;4.60;2.90;;;;;;;;;;4994634;28;20495;-71
2021/07/29 07:17:50;;;;;;;12.03;3.33;;;;;;;;;;4991971;28;20482;-70
2021/07/29 07:20:15;;;;;;;9.50;2.90;;;;;;;;;;4987244;28;20512;-71
2021/07/29 07:22:41;;;;;;;13.02;2.75;;;;;;;;;;4981695;28;21064;-72
2021/07/29 07:25:06;;;;;;;9.53;2.77;;;;;;;;;;4992264;28;20658;-72
2021/07/29 07:27:31;;;;;;;8.23;2.40;;;;;;;;;;4983982;28;20464;-71
2021/07/29 07:29:56;;;;;;;11.40;2.73;;;;;;;;;;4996352;23;20231;-69
2021/07/29 07:32:22;;;;;;;8.57;2.73;;;;;;;;;;4967695;28;20433;-70
2021/07/29 07:34:47;;;;;;;8.68;2.83;;;;;;;;;;4973032;28;20434;-69
2021/07/29 07:37:12;;;;;;;14.47;3.10;;;;;;;;;;4963973;28;20196;-71
2021/07/29 07:39:37;;;;;;;13.30;2.78;;;;;;;;;;4971420;28;20445;-69
2021/07/29 07:42:03;;;;;;;7.10;3.77;;;;;;;;;;4961558;28;20682;-70
2021/07/29 07:44:28;;;;;;;8.98;2.88;;;;;;;;;;4956129;28;20471;-69
2021/07/29 07:46:54;;;;;;;10.20;2.33;;;;;;;;;;4958500;28;20208;-70
2021/07/29 07:49:19;;;;;;;12.00;2.53;;;;;;;;;;4951954;28;20852;-70
2021/07/29 07:51:44;;;;;;;7.72;2.50;;;;;;;;;;4954086;28;20241;-70
2021/07/29 07:54:09;;;;;;;8.88;2.40;;;;;;;;;;4956253;28;20197;-70
2021/07/29 07:56:44;;;;;;;6.10;2.35;;;;;;;;;;4956330;28;20216;-70
2021/07/29 07:59:09;;;;;;;6.45;2.58;;;;;;;;;;4954678;28;20188;-69
2021/07/29 08:01:37;;;;;;;8.25;2.72;;;;;;;;;;4955734;28;20181;-69
2021/07/29 08:04:02;;;;;;;8.27;2.30;;;;;;;;;;4953844;28;20292;-70
2021/07/29 08:06:27;;;;;;;8.07;2.40;;;;;;;;;;4955703;28;20264;-69
2021/07/29 08:08:52;;;;;;;7.97;2.75;;;;;;;;;;4957298;28;20184;-69
2021/07/29 08:11:18;;;;;;;7.65;2.80;;;;;;;;;;4952417;28;20196;-69
2021/07/29 08:13:44;;;;;;;5.47;2.08;;;;;;;;;;4945629;28;20180;-71
2021/07/29 08:16:09;;;;;;;13.20;2.57;;;;;;;;;;4941804;28;20223;-70
2021/07/29 08:18:34;;;;;;;8.93;2.50;;;;;;;;;;4940681;28;21075;-70
2021/07/29 08:20:59;;;;;;;7.97;2.80;;;;;;;;;;4942872;28;20445;-71
2021/07/29 08:23:24;;;;;;;9.00;3.08;;;;;;;;;;4944833;28;20697;-71
2021/07/29 08:25:50;;;;;;;7.40;2.30;;;;;;;;;;4943778;28;20241;-71
2021/07/29 08:28:15;;;;;;;12.60;3.22;;;;;;;;;;4941326;28;20262;-69
2021/07/29 08:30:40;;;;;;;7.60;2.60;;;;;;;;;;4943358;28;20212;-71
2021/07/29 08:33:09;;;;;;;7.13;3.00;;;;;;;;;;4946106;28;20196;-70
2021/07/29 08:35:36;;;;;;;8.80;2.35;;;;;;;;;;4944604;28;20431;-68
2021/07/29 08:38:01;;;;;;;9.23;2.55;;;;;;;;;;4942884;28;20184;-69
2021/07/29 08:40:26;;;;;;;11.30;3.00;;;;;;;;;;4957837;28;20267;-70
2021/07/29 08:42:51;;;;;;;6.70;2.10;;;;;;;;;;4941415;28;20446;-70
2021/07/29 08:45:16;;;;;;;8.25;2.17;;;;;;;;;;4945252;28;22135;-71
2021/07/29 08:47:42;;;;;;;5.70;2.40;;;;;;;;;;4942213;28;20177;-70
2021/07/29 08:50:08;;;;;;;7.10;1.80;;;;;;;;;;4955889;28;20438;-68
2021/07/29 08:52:33;;;;;;;4.47;1.58;;;;;;;;;;4941413;28;20180;-71
2021/07/29 08:54:58;;;;;;;4.20;1.83;;;;;;;;;;4944808;28;20200;-70
2021/07/29 08:57:28;;;;;;;4.68;1.85;;;;;;;;;;4939880;28;20195;-70
2021/07/29 08:59:53;;;;;;;5.03;1.67;;;;;;;;;;4940621;28;20196;-68
2021/07/29 09:02:25;;;;;;;7.25;1.90;;;;;;;;;;4943652;28;20183;-68
2021/07/29 09:05:07;;;;;;;4.85;1.58;;;;;;;;;;4941802;28;20205;-71
2021/07/29 09:07:33;;;;;;;5.55;2.83;;;;;;;;;;4941278;28;20264;-68
2021/07/29 09:09:58;;;;;;;4.00;1.40;;;;;;;;;;4940657;28;20589;-69
2021/07/29 09:12:24;;;;;;;8.05;1.63;;;;;;;;;;4942498;28;20173;-69
2021/07/29 09:14:50;;;;;;;6.45;1.45;;;;;;;;;;4943325;28;20185;-68
2021/07/29 09:17:16;;;;;;;4.35;1.42;;;;;;;;;;4943437;28;20616;-69
2021/07/29 09:19:45;;;;;;;4.57;1.50;;;;;;;;;;4945006;28;20259;-69
2021/07/29 09:22:15;;;;;;;9.05;2.03;;;;;;;;;;4943976;29;20638;-69
2021/07/29 09:24:54;;;;;;;5.05;1.50;;;;;;;;;;4955416;28;20213;-68
2021/07/29 09:27:19;;;;;;;4.38;1.42;;;;;;;;;;4940514;28;20173;-69
2021/07/29 09:29:45;;;;;;;6.60;1.50;;;;;;;;;;4945479;28;20646;-70
2021/07/29 09:32:10;;;;;;;3.63;1.27;;;;;;;;;;4942198;28;20713;-69
2021/07/29 09:34:40;;;;;;;3.58;1.38;;;;;;;;;;4943950;28;20520;-69
2021/07/29 09:37:06;;;;;;;3.33;1.25;;;;;;;;;;4955841;28;20188;-70
2021/07/29 09:39:31;;;;;;;6.05;1.42;;;;;;;;;;4944524;28;20256;-70
2021/07/29 09:42:12;;;;;;;6.03;1.40;;;;;;;;;;4942570;28;20189;-69
2021/07/29 09:44:39;;;;;;;3.88;1.60;;;;;;;;;;4942330;28;20227;-67
2021/07/29 09:47:04;;;;;;;3.55;1.58;;;;;;;;;;4941854;28;20176;-71
2021/07/29 09:49:30;;;;;;;6.55;1.42;;;;;;;;;;4941010;28;20209;-69
2021/07/29 09:51:56;;;;;;;5.85;1.35;;;;;;;;;;4939747;28;20240;-69
2021/07/29 09:54:21;;;;;;;6.10;1.52;;;;;;;;;;4940497;28;20187;-68
2021/07/29 09:56:46;;;;;;;4.50;1.65;;;;;;;;;;4941420;28;20189;-69
2021/07/29 09:59:11;;;;;;;8.23;1.60;;;;;;;;;;4943239;28;20200;-67
2021/07/29 10:01:36;;;;;;;7.40;1.90;;;;;;;;;;4939952;28;20192;-68
2021/07/29 10:04:03;;;;;;;5.35;1.88;;;;;;;;;;4940504;28;20532;-69
2021/07/29 10:06:29;;;;;;;3.40;1.30;;;;;;;;;;4939780;28;20270;-67
2021/07/29 10:08:56;;;;;;;3.17;1.40;;;;;;;;;;4940714;28;20900;-70
2021/07/29 10:11:22;;;;;;;6.50;1.92;;;;;;;;;;4943720;28;20291;-68
2021/07/29 10:13:48;;;;;;;3.38;1.70;;;;;;;;;;4954420;28;20200;-69
2021/07/29 10:16:17;;;;;;;2.60;1.10;;;;;;;;;;4942313;28;20224;-69
2021/07/29 10:18:51;;;;;;;5.82;1.55;;;;;;;;;;4940893;28;20185;-68
2021/07/29 10:21:26;;;;;;;4.10;1.95;;;;;;;;;;4940503;28;20234;-69
2021/07/29 10:23:58;;;;;;;3.95;1.25;;;;;;;;;;4939185;28;20231;-68
2021/07/29 10:26:23;;;;;;;2.92;1.20;;;;;;;;;;4945498;28;20220;-72
2021/07/29 10:28:48;;;;;;;3.50;1.35;;;;;;;;;;4944046;28;20207;-68
2021/07/29 10:31:15;;;;;;;6.57;1.88;;;;;;;;;;4938349;28;20373;-69
2021/07/29 10:33:41;;;;;;;3.30;1.55;;;;;;;;;;4939530;28;20192;-67
2021/07/29 10:36:08;;;;;;;2.40;1.20;;;;;;;;;;4939622;28;20697;-69
2021/07/29 10:38:39;;;;;;;5.00;1.45;;;;;;;;;;4942991;28;20179;-70
2021/07/29 10:41:10;;;;;;;6.07;1.42;;;;;;;;;;4940222;28;20255;-69
2021/07/29 10:43:35;;;;;;;6.03;1.45;;;;;;;;;;4947332;28;20335;-71
2021/07/29 10:46:01;;;;;;;4.35;1.35;;;;;;;;;;4940927;28;20177;-67
2021/07/29 10:48:43;;;;;;;3.72;1.35;;;;;;;;;;4940206;28;20610;-69
2021/07/29 10:51:11;;;;;;;5.22;1.55;;;;;;;;;;4941409;28;20235;-70
2021/07/29 10:53:46;;;;;;;3.63;1.30;;;;;;;;;;4942908;28;20185;-70
2021/07/29 10:56:12;;;;;;;5.03;1.50;;;;;;;;;;4939450;28;20190;-71
2021/07/29 10:58:38;;;;;;;5.18;1.50;;;;;;;;;;4942981;28;20481;-67
2021/07/29 11:01:03;;;;;;;7.45;1.65;;;;;;;;;;4938845;28;20228;-68
2021/07/29 11:03:29;;;;;;;5.23;1.53;;;;;;;;;;4939633;28;20299;-67
2021/07/29 11:06:03;;;;;;;4.50;1.38;;;;;;;;;;4939865;28;20442;-68
2021/07/29 11:08:29;;;;;;;9.15;1.52;;;;;;;;;;4941924;28;20364;-68
2021/07/29 11:10:56;;;;;;;4.95;1.60;;;;;;;;;;4938928;28;20271;-70
2021/07/29 11:13:22;;;;;;;5.32;1.92;;;;;;;;;;4940728;28;20185;-68
2021/07/29 11:15:47;;;;;;;6.47;1.52;;;;;;;;;;4943154;28;20189;-68
2021/07/29 11:18:15;;;;;;;6.47;1.57;;;;;;;;;;4944434;28;20181;-68
2021/07/29 11:20:40;;;;;;;4.35;1.33;;;;;;;;;;4944437;28;20450;-67
2021/07/29 11:23:05;;;;;;;5.32;1.23;;;;;;;;;;4943603;28;20216;-69
2021/07/29 11:25:33;;;;;;;14.48;2.80;;;;;;;;;;4944620;28;20229;-68
2021/07/29 11:28:19;;;;;;;4.55;1.25;;;;;;;;;;4944950;28;20192;-67
2021/07/29 11:30:44;;;;;;;6.57;1.60;;;;;;;;;;4945790;28;20224;-69
2021/07/29 11:33:19;;;;;;;5.45;1.23;;;;;;;;;;4944446;28;20706;-69
2021/07/29 11:35:45;;;;;;;3.95;1.30;;;;;;;;;;4940580;28;20338;-68
2021/07/29 11:38:14;;;;;;;4.60;1.37;;;;;;;;;;4945755;28;20275;-67
2021/07/29 11:40:40;;;;;;;3.92;1.40;;;;;;;;;;4944873;28;21042;-68
2021/07/29 11:43:19;;;;;;;4.22;1.60;;;;;;;;;;4945139;28;20212;-68
2021/07/29 11:45:44;;;;;;;6.47;1.60;;;;;;;;;;4941277;28;20280;-67
2021/07/29 11:48:18;;;;;;;6.77;1.70;;;;;;;;;;4942828;28;20260;-67
2021/07/29 11:50:43;;;;;;;4.25;1.73;;;;;;;;;;4943176;28;20829;-69
2021/07/29 11:53:09;;;;;;;4.83;1.53;;;;;;;;;;4943987;28;20204;-68
2021/07/29 11:55:38;;;;;;;3.92;1.52;;;;;;;;;;4942489;28;20426;-66
2021/07/29 11:58:08;;;;;;;8.65;2.10;;;;;;;;;;4953024;28;20845;-70
2021/07/29 12:00:34;;;;;;;6.22;1.80;;;;;;;;;;4945600;28;20725;-69
2021/07/29 12:03:00;;;;;;;6.82;2.20;;;;;;;;;;4941689;28;20189;-69
2021/07/29 12:05:27;;;;;;;5.47;1.88;;;;;;;;;;4943712;28;20896;-67
2021/07/29 12:07:53;;;;;;;9.18;2.58;;;;;;;;;;4942072;28;20215;-67
2021/07/29 12:10:19;;;;;;;8.73;3.13;;;;;;;;;;4942180;28;20201;-69
2021/07/29 12:12:45;;;;;;;7.70;2.72;;;;;;;;;;4943971;28;20177;-68
2021/07/29 12:15:13;;;;;;;8.05;2.30;;;;;;;;;;4943534;28;20204;-67
2021/07/29 12:17:38;;;;;;;10.35;2.72;;;;;;;;;;4943298;28;20177;-67
2021/07/29 12:20:05;;;;;;;8.63;2.42;;;;;;;;;;4941419;28;20278;-67
2021/07/29 12:22:31;;;;;;;7.32;2.45;;;;;;;;;;4943761;28;20519;-67
2021/07/29 12:24:58;;;;;;;6.32;2.10;;;;;;;;;;4943184;28;20205;-68
2021/07/29 12:27:23;;;;;;;6.85;2.17;;;;;;;;;;4942302;28;20197;-69
2021/07/29 12:29:49;;;;;;;7.93;2.17;;;;;;;;;;4952079;28;20212;-68
2021/07/29 12:32:20;;;;;;;7.75;2.50;;;;;;;;;;4948116;28;20192;-67
2021/07/29 12:34:46;;;;;;;7.22;2.03;;;;;;;;;;4941085;28;20180;-68
2021/07/29 12:37:12;;;;;;;12.13;2.67;;;;;;;;;;4942075;28;20232;-71
2021/07/29 12:39:38;;;;;;;7.70;2.83;;;;;;;;;;4942416;28;21926;-70
2021/07/29 12:42:20;;;;;;;4.70;1.52;;;;;;;;;;4942497;28;20834;-68
2021/07/29 12:44:59;;;;;;;5.95;1.98;;;;;;;;;;4945487;28;20279;-68
2021/07/29 12:47:25;;;;;;;6.40;2.40;;;;;;;;;;4943472;28;20235;-69
2021/07/29 12:49:50;;;;;;;7.50;2.22;;;;;;;;;;4940691;28;21300;-68
2021/07/29 12:52:22;;;;;;;9.10;2.05;;;;;;;;;;4940885;28;20185;-70
2021/07/29 12:55:07;;;;;;;5.15;1.52;;;;;;;;;;4940237;28;20189;-70
2021/07/29 12:57:48;;;;;;;5.80;1.98;;;;;;;;;;4939800;28;20189;-67
2021/07/29 13:00:16;;;;;;;8.68;2.13;;;;;;;;;;4940248;28;20223;-68
2021/07/29 13:02:41;;;;;;;9.25;1.90;;;;;;;;;;4948688;28;20245;-70
2021/07/29 13:05:07;;;;;;;4.43;1.80;;;;;;;;;;4939887;28;20216;-69
2021/07/29 13:07:32;;;;;;;3.63;1.92;;;;;;;;;;4943698;28;21000;-68
2021/07/29 13:09:57;;;;;;;8.07;1.60;;;;;;;;;;4940485;28;21079;-66
2021/07/29 13:12:22;;;;;;;6.13;2.10;;;;;;;;;;4939382;28;20450;-69
2021/07/29 13:14:47;;;;;;;7.95;2.30;;;;;;;;;;4940680;28;20638;-68
2021/07/29 13:17:12;;;;;;;6.43;2.20;;;;;;;;;;4941627;28;20177;-68
2021/07/29 13:19:38;;;;;;;8.50;2.23;;;;;;;;;;4941945;28;20208;-69
2021/07/29 13:22:03;;;;;;;8.70;2.08;;;;;;;;;;4941962;28;20420;-69
2021/07/29 13:24:29;;;;;;;6.13;2.35;;;;;;;;;;4941348;28;20207;-68
2021/07/29 13:26:54;;;;;;;6.20;1.95;;;;;;;;;;4939812;28;20194;-68
2021/07/29 13:29:19;;;;;;;4.60;1.87;;;;;;;;;;4940135;28;20204;-70
2021/07/29 13:31:44;;;;;;;4.30;1.70;;;;;;;;;;4989676;23;20567;-69
2021/07/29 13:34:10;;;;;;;9.17;2.30;;;;;;;;;;4974882;28;20444;-69
2021/07/29 13:36:35;;;;;;;6.88;2.20;;;;;;;;;;4985365;28;20474;-70
2021/07/29 13:39:00;;;;;;;7.13;1.90;;;;;;;;;;4979808;28;20206;-72
2021/07/29 13:41:26;;;;;;;7.60;2.10;;;;;;;;;;4975782;28;20482;-70
2021/07/29 13:43:52;;;;;;;8.70;1.80;;;;;;;;;;4973705;28;20842;-70
2021/07/29 13:46:17;;;;;;;6.50;2.15;;;;;;;;;;4974492;28;20186;-71
2021/07/29 13:48:42;;;;;;;3.95;1.60;;;;;;;;;;4974674;28;20184;-69
2021/07/29 13:51:09;;;;;;;5.70;1.48;;;;;;;;;;4972812;28;20200;-71
2021/07/29 13:53:34;;;;;;;3.25;1.40;;;;;;;;;;4975082;28;21651;-72
2021/07/29 13:56:00;;;;;;;5.07;1.67;;;;;;;;;;4972902;28;20238;-69
2021/07/29 13:58:25;;;;;;;5.40;1.30;;;;;;;;;;4978755;28;20245;-69
2021/07/29 14:00:50;;;;;;;4.07;2.00;;;;;;;;;;4974188;28;20633;-69
2021/07/29 14:03:15;;;;;;;4.83;1.50;;;;;;;;;;4978768;28;20464;-67
2021/07/29 14:05:44;;;;;;;8.97;1.60;;;;;;;;;;4976146;28;21001;-68
2021/07/29 14:08:09;;;;;;;4.85;1.90;;;;;;;;;;4977542;28;20429;-68
2021/07/29 14:10:35;;;;;;;4.00;1.60;;;;;;;;;;4974758;28;20210;-69
2021/07/29 14:13:00;;;;;;;6.15;1.50;;;;;;;;;;4972303;28;20175;-69
2021/07/29 14:15:25;;;;;;;3.07;1.40;;;;;;;;;;4984279;28;20183;-70
2021/07/29 14:20:20;;;;;;;9.48;2.78;;;;;;;;;;4974612;28;20821;-68
2021/07/29 14:25:20;;;;;;;3.40;1.30;;;;;;;;;;4974818;28;20197;-68
2021/07/29 14:27:45;;;;;;;3.38;1.52;;;;;;;;;;4976684;28;20187;-68
2021/07/29 14:30:10;;;;;;;5.38;1.30;;;;;;;;;;4975127;28;20316;-69
2021/07/29 14:32:36;;;;;;;5.40;1.60;;;;;;;;;;4976691;28;20191;-68
2021/07/29 14:35:01;;;;;;;4.25;2.22;;;;;;;;;;4975500;28;20293;-71
2021/07/29 14:37:26;;;;;;;4.75;1.77;;;;;;;;;;4975934;28;21412;-68
2021/07/29 14:39:53;;;;;;;8.68;1.60;;;;;;;;;;4975846;28;21725;-68